Terminal Aerodrome Forecast
Issued by NWS Twin Cities, MN

Home | Current Version | Previous Version | Text Only | Print | Product List | Glossary On
Versions: 1 2 3 4 5 6 7 8 9 10 11 12 13 14 15 16 17 18
000
FTUS43 KMPX 311121
TAFSTC
TAF
KSTC 311121Z 3112/0112 17008KT 4SM BR SCT007
      TEMPO 3112/3114 6SM BR BKN007
     FM311400 19012G18KT P6SM SCT012
     FM311500 19018G27KT P6SM SKC
     FM010000 18006KT P6SM SCT120 BKN200
     FM010600 19004KT 6SM BR SCT010 BKN200=

USA.gov is the U.S. government's official web portal to all federal, state and local government web resources and services.